createdAt,value
2023-05-10T00:00:40.333Z,984.46
2023-05-10T00:01:40.351Z,984.44
2023-05-10T00:02:40.542Z,984.48
2023-05-10T00:03:40.386Z,984.43
2023-05-10T00:04:40.300Z,984.46
2023-05-10T00:05:40.309Z,984.45
2023-05-10T00:06:40.284Z,984.41
2023-05-10T00:07:40.342Z,984.49
2023-05-10T00:08:40.288Z,984.41
2023-05-10T00:09:40.281Z,984.38
2023-05-10T00:10:40.254Z,984.38
2023-05-10T00:11:40.250Z,984.33
2023-05-10T00:12:40.242Z,984.40
2023-05-10T00:13:40.247Z,984.39
2023-05-10T00:14:40.227Z,984.42
2023-05-10T00:15:40.268Z,984.37
2023-05-10T00:16:40.261Z,984.43
2023-05-10T00:17:40.230Z,984.37
2023-05-10T00:18:40.197Z,984.38
2023-05-10T00:19:40.190Z,984.35
2023-05-10T00:22:05.745Z,984.35
2023-05-10T00:23:05.744Z,984.30
2023-05-10T00:24:06.820Z,984.30
2023-05-10T00:25:06.818Z,984.29
2023-05-10T00:26:06.803Z,984.29
2023-05-10T00:27:06.806Z,984.27
2023-05-10T00:28:06.787Z,984.25
2023-05-10T00:29:06.783Z,984.29
2023-05-10T00:30:06.805Z,984.25
2023-05-10T00:31:06.768Z,984.26
2023-05-10T00:32:06.796Z,984.24
2023-05-10T00:33:06.769Z,984.22
2023-05-10T00:34:06.762Z,984.21
2023-05-10T00:35:06.745Z,984.20
2023-05-10T00:36:06.736Z,984.23
2023-05-10T00:37:06.725Z,984.22
2023-05-10T00:38:06.725Z,984.14
2023-05-10T00:39:06.704Z,984.22
2023-05-10T00:40:06.688Z,984.15
2023-05-10T00:41:07.218Z,984.12
2023-05-10T00:42:06.682Z,984.17
2023-05-10T00:43:06.661Z,984.15
2023-05-10T00:44:06.655Z,984.17
2023-05-10T00:45:06.647Z,984.17
2023-05-10T00:46:06.726Z,984.21
2023-05-10T00:47:06.627Z,984.12
2023-05-10T00:48:06.706Z,984.14
2023-05-10T00:49:06.615Z,984.14
2023-05-10T00:50:06.617Z,984.14
2023-05-10T00:51:06.610Z,984.15
2023-05-10T00:52:06.592Z,984.14
2023-05-10T00:53:06.589Z,984.10
2023-05-10T00:54:06.578Z,984.07
2023-05-10T00:55:06.572Z,984.05
2023-05-10T00:56:06.575Z,984.07
2023-05-10T00:57:06.552Z,984.05
2023-05-10T00:58:06.541Z,984.10
2023-05-10T00:59:06.535Z,984.08
2023-05-10T01:00:07.527Z,984.09
2023-05-10T01:01:06.548Z,984.14
2023-05-10T01:02:06.523Z,984.04
2023-05-10T01:03:06.636Z,984.08
2023-05-10T01:04:06.519Z,984.09
2023-05-10T01:05:06.569Z,984.15
2023-05-10T01:06:06.494Z,984.10
2023-05-10T01:07:06.480Z,984.14
2023-05-10T01:08:06.464Z,984.12
2023-05-10T01:09:06.457Z,984.16
2023-05-10T01:10:06.455Z,984.17
2023-05-10T01:11:06.453Z,984.12
2023-05-10T01:12:06.530Z,984.13
2023-05-10T01:13:06.476Z,984.16
2023-05-10T01:14:06.451Z,984.19
2023-05-10T01:15:06.412Z,984.15
2023-05-10T01:16:06.468Z,984.15
2023-05-10T01:17:06.403Z,984.13
2023-05-10T01:18:06.417Z,984.15
2023-05-10T01:19:06.370Z,984.16
2023-05-10T01:20:06.379Z,984.15
2023-05-10T01:21:06.360Z,984.14
2023-05-10T01:22:06.353Z,984.15
2023-05-10T01:23:06.350Z,984.14
2023-05-10T01:24:06.335Z,984.15
2023-05-10T01:25:06.326Z,984.14
2023-05-10T01:26:06.322Z,984.15
2023-05-10T01:27:06.306Z,984.15
2023-05-10T01:28:06.329Z,984.07
2023-05-10T01:29:06.291Z,984.11
2023-05-10T01:30:15.612Z,984.09
2023-05-10T01:31:08.302Z,984.13
2023-05-10T01:32:07.128Z,984.09
2023-05-10T01:33:06.328Z,984.13
2023-05-10T01:34:06.260Z,984.14
2023-05-10T01:35:06.237Z,984.13
2023-05-10T01:36:06.237Z,984.13
2023-05-10T01:37:06.237Z,984.12
2023-05-10T01:38:06.231Z,984.16
2023-05-10T01:39:06.210Z,984.13
2023-05-10T01:40:06.210Z,984.14
2023-05-10T01:41:06.182Z,984.13
2023-05-10T01:42:07.195Z,984.08
2023-05-10T01:43:06.184Z,984.07
2023-05-10T01:44:06.183Z,984.12
2023-05-10T01:45:06.170Z,984.02
2023-05-10T01:46:06.154Z,984.08
2023-05-10T01:47:06.149Z,984.05
2023-05-10T01:48:06.173Z,984.03
2023-05-10T01:49:06.149Z,984.08
2023-05-10T01:50:06.121Z,984.08
2023-05-10T01:51:06.108Z,984.06
2023-05-10T01:52:06.106Z,984.03
2023-05-10T01:53:06.098Z,984.07
2023-05-10T01:54:06.093Z,984.05
2023-05-10T01:55:06.078Z,984.05
2023-05-10T01:56:06.069Z,984.05
2023-05-10T01:57:06.065Z,984.02
2023-05-10T01:58:06.063Z,984.01
2023-05-10T01:59:06.079Z,984.03
2023-05-10T02:00:06.633Z,984.04
2023-05-10T02:01:06.123Z,984.05
2023-05-10T02:02:06.020Z,984.02
2023-05-10T02:03:06.150Z,984.02
2023-05-10T02:04:06.041Z,984.03
2023-05-10T02:05:06.002Z,984.05
2023-05-10T02:06:05.991Z,984.06
2023-05-10T02:07:05.984Z,984.07
2023-05-10T02:08:05.982Z,984.04
2023-05-10T02:09:06.006Z,984.02
2023-05-10T02:10:05.978Z,984.01
2023-05-10T02:11:05.957Z,984.02
2023-05-10T02:12:05.943Z,984.05
2023-05-10T02:13:05.966Z,984.02
2023-05-10T02:14:05.928Z,984.06
2023-05-10T02:15:05.919Z,984.07
2023-05-10T02:16:05.977Z,984.00
2023-05-10T02:17:05.900Z,984.11
2023-05-10T02:18:05.942Z,984.07
2023-05-10T02:19:05.885Z,984.07
2023-05-10T02:20:06.710Z,984.06
2023-05-10T02:21:05.867Z,984.10
2023-05-10T02:22:05.863Z,984.08
2023-05-10T02:23:05.870Z,984.03
2023-05-10T02:24:05.842Z,984.06
2023-05-10T02:25:06.100Z,984.06
2023-05-10T02:26:05.832Z,984.05
2023-05-10T02:27:05.832Z,984.06
2023-05-10T02:28:05.814Z,984.07
2023-05-10T02:29:05.829Z,984.06
2023-05-10T02:30:05.817Z,984.05
2023-05-10T02:31:05.810Z,984.09
2023-05-10T02:32:05.803Z,984.03
2023-05-10T02:33:05.782Z,984.07
2023-05-10T02:34:05.754Z,984.03
2023-05-10T02:35:06.779Z,984.06
2023-05-10T02:36:05.773Z,984.03
2023-05-10T02:37:05.736Z,984.05
2023-05-10T02:38:05.747Z,984.06
2023-05-10T02:39:05.742Z,984.08
2023-05-10T02:40:05.756Z,984.05
2023-05-10T02:41:05.718Z,984.11
2023-05-10T02:42:05.732Z,984.16
2023-05-10T02:43:05.695Z,984.18
2023-05-10T02:44:05.680Z,984.19
2023-05-10T02:45:05.679Z,984.20
2023-05-10T02:46:05.781Z,984.19
2023-05-10T02:47:05.645Z,984.17
2023-05-10T02:48:06.662Z,984.16
2023-05-10T02:49:05.652Z,984.11
2023-05-10T02:50:05.658Z,984.13
2023-05-10T02:51:05.639Z,984.13
2023-05-10T02:52:06.224Z,984.11
2023-05-10T02:53:05.625Z,984.12
2023-05-10T02:54:05.614Z,984.18
2023-05-10T02:55:05.584Z,984.14
2023-05-10T02:56:05.616Z,984.16
2023-05-10T02:57:05.621Z,984.09
2023-05-10T02:58:05.578Z,984.19
2023-05-10T02:59:05.553Z,984.21
2023-05-10T03:00:05.558Z,984.18
2023-05-10T03:01:06.182Z,984.13
2023-05-10T03:02:05.525Z,984.18
2023-05-10T03:03:05.584Z,984.14
2023-05-10T03:04:05.604Z,984.19
2023-05-10T03:05:05.512Z,984.18
2023-05-10T03:06:05.505Z,984.20
2023-05-10T03:07:05.489Z,984.20
2023-05-10T03:08:05.482Z,984.17
2023-05-10T03:09:05.478Z,984.20
2023-05-10T03:10:05.515Z,984.27
2023-05-10T03:11:05.495Z,984.19
2023-05-10T03:12:05.510Z,984.28
2023-05-10T03:13:05.476Z,984.22
2023-05-10T03:14:05.447Z,984.23
2023-05-10T03:15:05.452Z,984.31
2023-05-10T03:16:05.576Z,984.26
2023-05-10T03:17:05.425Z,984.25
2023-05-10T03:18:05.428Z,984.31
2023-05-10T03:19:05.389Z,984.30
2023-05-10T03:20:05.386Z,984.33
2023-05-10T03:21:05.398Z,984.36
2023-05-10T03:22:05.388Z,984.40
2023-05-10T03:23:05.366Z,984.42
2023-05-10T03:24:05.365Z,984.34
2023-05-10T03:25:05.371Z,984.42
2023-05-10T03:26:05.358Z,984.36
2023-05-10T03:27:05.373Z,984.43
2023-05-10T03:28:05.341Z,984.42
2023-05-10T03:29:05.332Z,984.41
2023-05-10T03:30:05.312Z,984.40
2023-05-10T03:31:05.336Z,984.43
2023-05-10T03:32:05.292Z,984.47
2023-05-10T03:33:05.318Z,984.48
2023-05-10T03:34:05.284Z,984.49
2023-05-10T03:35:05.269Z,984.49
2023-05-10T03:36:05.275Z,984.52
2023-05-10T03:37:06.177Z,984.52
2023-05-10T03:38:05.255Z,984.51
2023-05-10T03:39:05.229Z,984.54
2023-05-10T03:40:06.245Z,984.51
2023-05-10T03:41:05.767Z,984.45
2023-05-10T03:42:05.225Z,984.50
2023-05-10T03:43:05.225Z,984.54
2023-05-10T03:44:05.210Z,984.51
2023-05-10T03:45:05.203Z,984.51
2023-05-10T03:46:05.212Z,984.52
2023-05-10T03:47:05.205Z,984.53
2023-05-10T03:48:05.241Z,984.51
2023-05-10T03:49:05.182Z,984.56
2023-05-10T03:50:05.163Z,984.53
2023-05-10T03:51:05.675Z,984.51
2023-05-10T03:52:05.142Z,984.53
2023-05-10T03:53:05.150Z,984.55
2023-05-10T03:54:05.126Z,984.61
2023-05-10T03:55:05.148Z,984.61
2023-05-10T03:56:05.113Z,984.61
2023-05-10T03:57:05.109Z,984.61
2023-05-10T03:58:05.112Z,984.68
2023-05-10T03:59:05.096Z,984.67
2023-05-10T04:00:05.088Z,984.71
2023-05-10T04:01:05.076Z,984.70
2023-05-10T04:02:05.068Z,984.73
2023-05-10T04:03:05.157Z,984.76
2023-05-10T04:04:05.051Z,984.73
2023-05-10T04:05:05.036Z,984.73
2023-05-10T04:06:05.882Z,984.75
2023-05-10T04:07:05.027Z,984.74
2023-05-10T04:08:05.017Z,984.74
2023-05-10T04:09:05.673Z,984.81
2023-05-10T04:10:05.000Z,984.77
2023-05-10T04:11:05.022Z,984.79
2023-05-10T04:12:05.011Z,984.85
2023-05-10T04:13:05.090Z,984.78
2023-05-10T04:14:04.972Z,984.79
2023-05-10T04:15:05.008Z,984.78
2023-05-10T04:16:05.216Z,984.84
2023-05-10T04:17:05.002Z,984.83
2023-05-10T04:18:06.631Z,984.88
2023-05-10T04:19:04.927Z,984.85
2023-05-10T04:20:05.741Z,984.84
2023-05-10T04:21:04.926Z,984.82
2023-05-10T04:22:04.923Z,984.88
2023-05-10T04:23:04.906Z,984.87
2023-05-10T04:24:04.900Z,984.86
2023-05-10T04:25:05.050Z,984.87
2023-05-10T04:26:04.863Z,984.85
2023-05-10T04:27:04.900Z,984.92
2023-05-10T04:28:04.859Z,984.91
2023-05-10T04:29:04.849Z,984.96
2023-05-10T04:30:04.832Z,984.92
2023-05-10T04:31:06.754Z,984.91
2023-05-10T04:32:04.849Z,984.93
2023-05-10T04:33:05.749Z,984.94
2023-05-10T04:34:05.760Z,985.01
2023-05-10T04:35:04.798Z,984.97
2023-05-10T04:36:04.801Z,984.89
2023-05-10T04:37:04.823Z,984.95
2023-05-10T04:38:04.788Z,984.96
2023-05-10T04:39:04.794Z,984.98
2023-05-10T04:40:04.753Z,985.00
2023-05-10T04:41:04.862Z,984.98
2023-05-10T04:42:04.745Z,985.01
2023-05-10T04:43:04.735Z,985.02
2023-05-10T04:44:04.728Z,985.07
2023-05-10T04:45:04.780Z,985.03
2023-05-10T04:46:04.750Z,985.09
2023-05-10T04:47:04.704Z,985.09
2023-05-10T04:48:04.799Z,985.07
2023-05-10T04:49:04.701Z,985.11
2023-05-10T04:50:04.706Z,985.10
2023-05-10T04:51:05.738Z,985.16
2023-05-10T04:52:04.667Z,985.18
2023-05-10T04:53:04.668Z,985.20
2023-05-10T04:54:06.427Z,985.16
2023-05-10T04:55:05.653Z,985.21
2023-05-10T04:56:04.623Z,985.18
2023-05-10T04:57:04.619Z,985.20
2023-05-10T04:58:04.623Z,985.26
2023-05-10T04:59:04.606Z,985.21
2023-05-10T05:00:04.594Z,985.19
2023-05-10T05:01:04.593Z,985.25
2023-05-10T05:02:04.685Z,985.26
2023-05-10T05:03:04.653Z,985.27
2023-05-10T05:04:05.263Z,985.25
2023-05-10T05:05:04.560Z,985.31
2023-05-10T05:06:04.566Z,985.32
2023-05-10T05:07:04.547Z,985.30
2023-05-10T05:08:04.528Z,985.34
2023-05-10T05:09:04.532Z,985.34
2023-05-10T05:10:04.537Z,985.31
2023-05-10T05:11:04.511Z,985.39
2023-05-10T05:12:04.500Z,985.36
2023-05-10T05:13:04.528Z,985.39
2023-05-10T05:14:04.507Z,985.34
2023-05-10T05:15:04.475Z,985.37
2023-05-10T05:16:04.524Z,985.38
2023-05-10T05:17:04.470Z,985.40
2023-05-10T05:18:04.459Z,985.41
2023-05-10T05:19:05.465Z,985.38
2023-05-10T05:20:05.265Z,985.52
2023-05-10T05:21:04.434Z,985.44
2023-05-10T05:22:04.444Z,985.47
2023-05-10T05:23:04.448Z,985.48
2023-05-10T05:24:04.472Z,985.48
2023-05-10T05:25:04.441Z,985.50
2023-05-10T05:26:04.410Z,985.55
2023-05-10T05:27:05.182Z,985.54
2023-05-10T05:28:04.393Z,985.55
2023-05-10T05:29:04.376Z,985.57
2023-05-10T05:30:04.401Z,985.58
2023-05-10T05:31:04.377Z,985.57
2023-05-10T05:32:04.648Z,985.60
2023-05-10T05:33:04.406Z,985.54
2023-05-10T05:34:04.342Z,985.60
2023-05-10T05:35:04.330Z,985.61
2023-05-10T05:36:04.405Z,985.62
2023-05-10T05:37:04.332Z,985.63
2023-05-10T05:38:04.294Z,985.60
2023-05-10T05:39:05.301Z,985.58
2023-05-10T05:40:04.286Z,985.64
2023-05-10T05:41:04.267Z,985.60
2023-05-10T05:42:04.256Z,985.63
2023-05-10T05:43:04.262Z,985.64
2023-05-10T05:44:04.255Z,985.65
2023-05-10T05:45:04.290Z,985.65
2023-05-10T05:46:04.239Z,985.64
2023-05-10T05:47:04.224Z,985.65
2023-05-10T05:48:04.225Z,985.67
2023-05-10T05:49:04.199Z,985.66
2023-05-10T05:50:04.201Z,985.72
2023-05-10T05:51:07.089Z,985.69
2023-05-10T05:52:04.181Z,985.70
2023-05-10T05:53:04.183Z,985.72
2023-05-10T05:54:04.819Z,985.81
2023-05-10T05:55:04.179Z,985.82
2023-05-10T05:56:04.140Z,985.77
2023-05-10T05:57:04.139Z,985.78
2023-05-10T05:58:05.119Z,985.82
2023-05-10T05:59:05.127Z,985.82
2023-05-10T06:00:04.133Z,985.85
2023-05-10T06:01:04.109Z,985.82
2023-05-10T06:02:04.147Z,985.85
2023-05-10T06:03:04.249Z,985.95
2023-05-10T06:04:04.199Z,985.89
2023-05-10T06:05:04.103Z,985.87
2023-05-10T06:06:04.070Z,985.92
2023-05-10T06:07:04.064Z,985.87
2023-05-10T06:08:04.056Z,985.89
2023-05-10T06:09:04.047Z,985.88
2023-05-10T06:10:04.053Z,985.93
2023-05-10T06:11:04.034Z,985.96
2023-05-10T06:12:04.018Z,985.94
2023-05-10T06:13:04.096Z,985.97
2023-05-10T06:14:03.999Z,985.99
2023-05-10T06:15:07.025Z,985.95
2023-05-10T06:16:04.018Z,985.96
2023-05-10T06:17:04.022Z,986.03
2023-05-10T06:18:04.075Z,985.96
2023-05-10T06:19:03.975Z,985.97
2023-05-10T06:20:03.987Z,985.96
2023-05-10T06:21:03.956Z,986.03
2023-05-10T06:22:03.954Z,986.02
2023-05-10T06:23:03.962Z,986.00
2023-05-10T06:24:04.708Z,986.10
2023-05-10T06:25:04.168Z,986.06
2023-05-10T06:26:03.913Z,986.07
2023-05-10T06:27:03.916Z,986.00
2023-05-10T06:28:03.912Z,986.05
2023-05-10T06:29:03.886Z,986.08
2023-05-10T06:30:15.099Z,986.12
2023-05-10T06:31:05.885Z,986.09
2023-05-10T06:32:03.857Z,986.06
2023-05-10T06:33:03.898Z,986.12
2023-05-10T06:34:03.855Z,986.13
2023-05-10T06:35:03.846Z,986.15
2023-05-10T06:36:03.823Z,986.13
2023-05-10T06:37:03.819Z,986.23
2023-05-10T06:38:03.812Z,986.22
2023-05-10T06:39:03.802Z,986.19
2023-05-10T06:40:03.848Z,986.23
2023-05-10T06:41:03.783Z,986.26
2023-05-10T06:42:03.780Z,986.24
2023-05-10T06:43:03.780Z,986.29
2023-05-10T06:44:03.769Z,986.31
2023-05-10T06:45:03.792Z,986.29
2023-05-10T06:46:03.776Z,986.29
2023-05-10T06:47:05.695Z,986.29
2023-05-10T06:48:03.819Z,986.31
2023-05-10T06:49:03.740Z,986.37
2023-05-10T06:50:03.709Z,986.31
2023-05-10T06:51:04.710Z,986.27
2023-05-10T06:52:03.722Z,986.35
2023-05-10T06:53:03.700Z,986.32
2023-05-10T06:54:03.674Z,986.42
2023-05-10T06:55:03.801Z,986.39
2023-05-10T06:56:04.536Z,986.40
2023-05-10T06:57:10.770Z,986.35
2023-05-10T06:58:04.654Z,986.41
2023-05-10T06:59:03.645Z,986.34
2023-05-10T07:00:03.703Z,986.41
2023-05-10T07:01:03.704Z,986.38
2023-05-10T07:02:05.367Z,986.38
2023-05-10T07:03:03.655Z,986.37
2023-05-10T07:04:03.596Z,986.38
2023-05-10T07:05:03.771Z,986.40
2023-05-10T07:06:03.587Z,986.41
2023-05-10T07:07:03.583Z,986.38
2023-05-10T07:08:03.612Z,986.40
2023-05-10T07:09:03.568Z,986.42
2023-05-10T07:10:03.557Z,986.41
2023-05-10T07:11:03.563Z,986.46
2023-05-10T07:12:03.588Z,986.42
2023-05-10T07:13:03.613Z,986.45
2023-05-10T07:14:03.542Z,986.44
2023-05-10T07:15:03.547Z,986.49
2023-05-10T07:16:03.578Z,986.33
2023-05-10T07:17:03.572Z,986.45
2023-05-10T07:18:03.532Z,986.44
2023-05-10T07:19:03.476Z,986.51
2023-05-10T07:20:03.479Z,986.48
2023-05-10T07:21:03.492Z,986.54
2023-05-10T07:22:03.471Z,986.54
2023-05-10T07:23:03.491Z,986.52
2023-05-10T07:24:03.526Z,986.47
2023-05-10T07:25:03.425Z,986.48
2023-05-10T07:26:03.424Z,986.60
2023-05-10T07:27:03.411Z,986.53
2023-05-10T07:28:04.412Z,986.60
2023-05-10T07:29:03.393Z,986.61
2023-05-10T07:30:03.553Z,986.62
2023-05-10T07:31:03.446Z,986.60
2023-05-10T07:32:03.419Z,986.65
2023-05-10T07:33:03.420Z,986.62
2023-05-10T07:34:03.359Z,986.59
2023-05-10T07:35:03.387Z,986.59
2023-05-10T07:36:03.362Z,986.65
2023-05-10T07:37:03.360Z,986.69
2023-05-10T07:38:03.321Z,986.65
2023-05-10T07:39:03.312Z,986.66
2023-05-10T07:40:03.290Z,986.63
2023-05-10T07:41:04.406Z,986.71
2023-05-10T07:42:03.282Z,986.74
2023-05-10T07:43:03.318Z,986.73
2023-05-10T07:44:03.270Z,986.73
2023-05-10T07:45:03.284Z,986.74
2023-05-10T07:46:03.271Z,986.74
2023-05-10T07:47:03.246Z,986.76
2023-05-10T07:48:03.292Z,986.72
2023-05-10T07:49:04.318Z,986.75
2023-05-10T07:50:03.253Z,986.75
2023-05-10T07:51:03.233Z,986.78
2023-05-10T07:52:03.210Z,986.76
2023-05-10T07:53:03.193Z,986.77
2023-05-10T07:54:03.236Z,986.87
2023-05-10T07:55:03.184Z,986.78
2023-05-10T07:56:03.226Z,986.85
2023-05-10T07:57:03.221Z,986.81
2023-05-10T07:58:03.185Z,986.85
2023-05-10T07:59:03.161Z,986.86
2023-05-10T08:00:03.156Z,986.84
2023-05-10T08:01:03.159Z,986.85
2023-05-10T08:02:03.163Z,986.90
2023-05-10T08:03:03.288Z,986.95
2023-05-10T08:04:03.472Z,986.97
2023-05-10T08:05:03.099Z,986.91
2023-05-10T08:06:03.112Z,986.89
2023-05-10T08:07:03.098Z,986.92
2023-05-10T08:08:03.087Z,986.95
2023-05-10T08:09:03.073Z,986.90
2023-05-10T08:10:03.080Z,986.90
2023-05-10T08:11:03.071Z,986.91
2023-05-10T08:12:03.058Z,986.93
2023-05-10T08:13:03.078Z,986.95
2023-05-10T08:14:03.041Z,986.97
2023-05-10T08:15:03.031Z,987.02
2023-05-10T08:16:03.156Z,987.03
2023-05-10T08:17:03.023Z,986.98
2023-05-10T08:18:03.292Z,986.95
2023-05-10T08:19:03.230Z,986.98
2023-05-10T08:20:03.015Z,987.10
2023-05-10T08:21:02.996Z,987.09
2023-05-10T08:22:02.999Z,987.05
2023-05-10T08:23:02.969Z,987.09
2023-05-10T08:24:02.992Z,987.08
2023-05-10T08:25:03.188Z,987.10
2023-05-10T08:26:02.974Z,987.10
2023-05-10T08:27:02.936Z,987.08
2023-05-10T08:28:02.918Z,987.17
2023-05-10T08:29:02.919Z,987.13
2023-05-10T08:30:02.960Z,987.10
2023-05-10T08:31:02.945Z,987.17
2023-05-10T08:32:02.902Z,987.11
2023-05-10T08:33:02.923Z,987.20
2023-05-10T08:34:02.873Z,987.19
2023-05-10T08:35:02.882Z,987.16
2023-05-10T08:36:02.861Z,987.16
2023-05-10T08:37:02.846Z,987.16
2023-05-10T08:38:02.858Z,987.19
2023-05-10T08:39:02.854Z,987.22
2023-05-10T08:40:02.831Z,987.23
2023-05-10T08:41:02.837Z,987.24
2023-05-10T08:42:02.814Z,987.26
2023-05-10T08:43:02.806Z,987.26
2023-05-10T08:44:02.810Z,987.20
2023-05-10T08:45:02.823Z,987.25
2023-05-10T08:46:02.787Z,987.26
2023-05-10T08:47:02.857Z,987.25
2023-05-10T08:48:02.832Z,987.26
2023-05-10T08:49:02.757Z,987.28
2023-05-10T08:50:02.858Z,987.29
2023-05-10T08:51:02.753Z,987.32
2023-05-10T08:52:02.739Z,987.31
2023-05-10T08:53:02.769Z,987.31
2023-05-10T08:54:49.852Z,987.32
2023-05-10T08:55:49.844Z,987.31
2023-05-10T08:56:50.009Z,987.32
2023-05-10T08:57:49.833Z,987.36
2023-05-10T08:58:49.832Z,987.33
2023-05-10T08:59:49.831Z,987.36
2023-05-10T09:00:50.972Z,987.40
2023-05-10T09:01:50.894Z,987.41
2023-05-10T09:02:50.908Z,987.45
2023-05-10T09:03:50.920Z,987.48
2023-05-10T09:04:50.958Z,987.44
2023-05-10T09:05:50.868Z,987.49
2023-05-10T09:06:50.841Z,987.49
2023-05-10T09:07:50.839Z,987.53
2023-05-10T09:08:50.832Z,987.50
2023-05-10T09:09:50.850Z,987.50
2023-05-10T09:10:50.815Z,987.57
2023-05-10T09:11:50.841Z,987.52
2023-05-10T09:12:50.798Z,987.56
2023-05-10T09:13:50.796Z,987.57
2023-05-10T09:14:50.782Z,987.58
2023-05-10T09:15:50.802Z,987.60
2023-05-10T09:16:50.800Z,987.54
2023-05-10T09:17:50.815Z,987.53
2023-05-10T09:18:50.906Z,987.59
2023-05-10T09:19:50.826Z,987.61
2023-05-10T09:20:50.742Z,987.60
2023-05-10T09:21:50.730Z,987.55
2023-05-10T09:22:50.746Z,987.59
2023-05-10T09:23:50.704Z,987.59
2023-05-10T09:24:50.705Z,987.63
2023-05-10T09:25:50.715Z,987.62
2023-05-10T09:26:50.684Z,987.65
2023-05-10T09:27:50.673Z,987.62
2023-05-10T09:28:50.661Z,987.64
2023-05-10T09:29:50.665Z,987.68
2023-05-10T09:30:50.677Z,987.69
2023-05-10T09:31:50.649Z,987.65
2023-05-10T09:32:50.707Z,987.65
2023-05-10T09:33:50.630Z,987.70
2023-05-10T09:34:50.620Z,987.62
2023-05-10T09:35:50.621Z,987.63
2023-05-10T09:36:50.590Z,987.65
2023-05-10T09:37:51.622Z,987.68
2023-05-10T09:38:50.586Z,987.59
2023-05-10T09:39:50.599Z,987.64
2023-05-10T09:40:50.587Z,987.61
2023-05-10T09:41:50.566Z,987.65
2023-05-10T09:42:50.569Z,987.63
2023-05-10T09:43:50.565Z,987.66
2023-05-10T09:44:50.546Z,987.64
2023-05-10T09:45:50.545Z,987.64
2023-05-10T09:46:50.523Z,987.64
2023-05-10T09:47:50.578Z,987.65
2023-05-10T09:48:50.542Z,987.56
2023-05-10T09:49:50.521Z,987.56
2023-05-10T09:50:50.499Z,987.55
2023-05-10T09:51:50.491Z,987.59
2023-05-10T09:52:50.487Z,987.58
2023-05-10T09:53:50.538Z,987.63
2023-05-10T09:54:50.467Z,987.63
2023-05-10T09:55:50.478Z,987.62
2023-05-10T09:56:50.519Z,987.62
2023-05-10T09:57:50.464Z,987.58
2023-05-10T09:58:50.430Z,987.60
2023-05-10T09:59:50.436Z,987.64
2023-05-10T10:00:50.432Z,987.60
2023-05-10T10:01:50.547Z,987.60
2023-05-10T10:02:50.586Z,987.68
2023-05-10T10:03:51.444Z,987.62
2023-05-10T10:04:50.585Z,987.63
2023-05-10T10:05:50.410Z,987.62
2023-05-10T10:06:50.441Z,987.66
2023-05-10T10:07:50.372Z,987.62
2023-05-10T10:08:50.361Z,987.66
2023-05-10T10:09:50.424Z,987.68
2023-05-10T10:10:53.167Z,987.64
2023-05-10T10:11:50.338Z,987.63
2023-05-10T10:12:50.326Z,987.66
2023-05-10T10:13:50.328Z,987.65
2023-05-10T10:14:50.334Z,987.69
2023-05-10T10:15:50.373Z,987.69
2023-05-10T10:17:05.732Z,987.67
2023-05-10T10:17:52.322Z,987.65
2023-05-10T10:18:50.324Z,987.72
2023-05-10T10:19:50.271Z,987.66
2023-05-10T10:20:50.653Z,987.73
2023-05-10T10:21:52.104Z,987.62
2023-05-10T10:22:50.246Z,987.66
2023-05-10T10:23:50.243Z,987.66
2023-05-10T10:24:50.238Z,987.63
2023-05-10T10:25:50.232Z,987.62
2023-05-10T10:26:50.257Z,987.65
2023-05-10T10:27:50.264Z,987.60
2023-05-10T10:28:50.289Z,987.62
2023-05-10T10:29:50.217Z,987.65
2023-05-10T10:30:50.211Z,987.66
2023-05-10T10:31:50.242Z,987.68
2023-05-10T10:32:50.250Z,987.68
2023-05-10T10:33:50.164Z,987.60
2023-05-10T10:34:51.051Z,987.60
2023-05-10T10:35:50.154Z,987.62
2023-05-10T10:36:50.151Z,987.69
2023-05-10T10:37:50.130Z,987.65
2023-05-10T10:38:50.144Z,987.69
2023-05-10T10:39:50.117Z,987.65
2023-05-10T10:40:50.112Z,987.70
2023-05-10T10:41:50.103Z,987.62
2023-05-10T10:42:50.102Z,987.66
2023-05-10T10:43:50.087Z,987.69
2023-05-10T10:44:50.082Z,987.62
2023-05-10T10:45:50.071Z,987.56
2023-05-10T10:46:50.091Z,987.58
2023-05-10T10:47:50.132Z,987.56
2023-05-10T10:48:50.049Z,987.56
2023-05-10T10:49:50.035Z,987.61
2023-05-10T10:50:50.074Z,987.54
2023-05-10T10:51:50.036Z,987.52
2023-05-10T10:52:50.046Z,987.50
2023-05-10T10:53:50.018Z,987.54
2023-05-10T10:54:50.003Z,987.57
2023-05-10T10:55:50.086Z,987.57
2023-05-10T10:56:49.991Z,987.51
2023-05-10T10:57:49.990Z,987.45
2023-05-10T10:58:49.986Z,987.51
2023-05-10T10:59:49.991Z,987.51
2023-05-10T11:00:50.016Z,987.59
2023-05-10T11:01:50.509Z,987.54
2023-05-10T11:02:50.055Z,987.55
2023-05-10T11:03:49.970Z,987.52
2023-05-10T11:04:50.261Z,987.51
2023-05-10T11:05:49.946Z,987.50
2023-05-10T11:06:49.960Z,987.48
2023-05-10T11:07:49.901Z,987.48
2023-05-10T11:08:50.899Z,987.42
2023-05-10T11:09:49.897Z,987.46
2023-05-10T11:10:49.900Z,987.45
2023-05-10T11:11:49.886Z,987.48
2023-05-10T11:12:49.876Z,987.49
2023-05-10T11:13:51.406Z,987.45
2023-05-10T11:14:51.547Z,987.51
2023-05-10T11:15:49.862Z,987.49
2023-05-10T11:16:49.926Z,987.46
2023-05-10T11:17:50.570Z,987.45
2023-05-10T11:18:50.334Z,987.48
2023-05-10T11:19:50.810Z,987.45
2023-05-10T11:20:49.787Z,987.39
2023-05-10T11:21:50.837Z,987.47
2023-05-10T11:22:49.783Z,987.41
2023-05-10T11:23:49.796Z,987.45
2023-05-10T11:24:50.206Z,987.40
2023-05-10T11:25:50.783Z,987.48
2023-05-10T11:26:49.763Z,987.49
2023-05-10T11:27:50.761Z,987.44
2023-05-10T11:28:50.562Z,987.38
2023-05-10T11:29:49.754Z,987.43
2023-05-10T11:30:49.772Z,987.39
2023-05-10T11:31:49.724Z,987.39
2023-05-10T11:32:49.739Z,987.33
2023-05-10T11:33:49.719Z,987.39
2023-05-10T11:34:49.699Z,987.43
2023-05-10T11:35:49.689Z,987.43
2023-05-10T11:36:49.692Z,987.44
2023-05-10T11:37:49.708Z,987.42
2023-05-10T11:38:50.670Z,987.46
2023-05-10T11:39:49.673Z,987.45
2023-05-10T11:40:49.657Z,987.44
2023-05-10T11:41:49.664Z,987.49
2023-05-10T11:42:49.668Z,987.46
2023-05-10T11:43:49.651Z,987.48
2023-05-10T11:44:49.630Z,987.48
2023-05-10T11:45:49.650Z,987.51
2023-05-10T11:46:49.696Z,987.50
2023-05-10T11:47:49.696Z,987.52
2023-05-10T11:48:49.613Z,987.51
2023-05-10T11:49:49.582Z,987.50
2023-05-10T11:50:49.578Z,987.47
2023-05-10T11:51:49.587Z,987.53
2023-05-10T11:52:49.578Z,987.47
2023-05-10T11:53:49.571Z,987.51
2023-05-10T11:54:49.555Z,987.43
2023-05-10T11:55:50.155Z,987.46
2023-05-10T11:56:50.030Z,987.43
2023-05-10T11:57:49.538Z,987.48
2023-05-10T11:58:49.514Z,987.39
2023-05-10T11:59:49.507Z,987.44
2023-05-10T12:00:51.156Z,987.45
2023-05-10T12:01:49.514Z,987.41
2023-05-10T12:02:49.539Z,987.39
2023-05-10T12:03:51.343Z,987.48
2023-05-10T12:04:49.563Z,987.42
2023-05-10T12:05:49.463Z,987.46
2023-05-10T12:06:49.538Z,987.48
2023-05-10T12:07:49.465Z,987.46
2023-05-10T12:08:49.459Z,987.48
2023-05-10T12:09:50.092Z,987.43
2023-05-10T12:10:49.458Z,987.44
2023-05-10T12:11:49.410Z,987.45
2023-05-10T12:12:49.421Z,987.44
2023-05-10T12:13:49.399Z,987.46
2023-05-10T12:14:49.429Z,987.43
2023-05-10T12:15:49.425Z,987.48
2023-05-10T12:16:50.448Z,987.41
2023-05-10T12:17:49.445Z,987.42
2023-05-10T12:18:49.475Z,987.39
2023-05-10T12:19:49.350Z,987.42
2023-05-10T12:20:49.348Z,987.42
2023-05-10T12:21:49.347Z,987.43
2023-05-10T12:22:49.348Z,987.52
2023-05-10T12:23:49.327Z,987.50
2023-05-10T12:24:49.327Z,987.53
2023-05-10T12:25:49.306Z,987.51
2023-05-10T12:26:49.313Z,987.50
2023-05-10T12:27:50.174Z,987.55
2023-05-10T12:28:49.288Z,987.55
2023-05-10T12:29:49.289Z,987.58
2023-05-10T12:30:49.269Z,987.54